Time;durP1;ratioP1;P1;durP2;ratioP2;P2;SDS_P1;SDS_P2;PMS_P1;PMS_P2;Temp;Humidity;BMP_temperature;BMP_pressure;BME280_temperature;BME280_humidity;BME280_pressure;Samples;Min_cycle;Max_cycle;Signal;HPM_P1;HPM_P2
2022/07/12 00:02:23;;;;;;;20.90;17.83;;;;;;;;;;4753881;30;20517;-59
2022/07/12 00:04:51;;;;;;;31.55;27.25;;;;;;;;;;4753862;30;20101;-59
2022/07/12 00:07:19;;;;;;;25.65;20.15;;;;;;;;;;4753974;30;20044;-59
2022/07/12 00:09:46;;;;;;;28.70;22.60;;;;;;;;;;4752936;30;20097;-58
2022/07/12 00:12:14;;;;;;;21.38;17.05;;;;;;;;;;4753574;30;20051;-52
2022/07/12 00:14:41;;;;;;;20.65;18.60;;;;;;;;;;4753779;30;20055;-50
2022/07/12 00:17:08;;;;;;;39.60;25.13;;;;;;;;;;4753490;30;20391;-52
2022/07/12 00:19:35;;;;;;;41.17;25.52;;;;;;;;;;4753581;30;20052;-55
2022/07/12 00:22:03;;;;;;;34.10;20.45;;;;;;;;;;4753465;30;20052;-51
2022/07/12 00:24:30;;;;;;;19.65;17.70;;;;;;;;;;4753720;30;20048;-52
2022/07/12 00:26:57;;;;;;;18.38;16.48;;;;;;;;;;4753420;30;20044;-60
2022/07/12 00:29:25;;;;;;;21.50;19.42;;;;;;;;;;4753258;30;20063;-50
2022/07/12 00:31:52;;;;;;;51.78;38.92;;;;;;;;;;4753180;30;20056;-52
2022/07/12 00:34:19;;;;;;;29.70;25.02;;;;;;;;;;4752991;30;20106;-52
2022/07/12 00:36:47;;;;;;;39.17;30.17;;;;;;;;;;4753581;30;20052;-51
2022/07/12 00:39:16;;;;;;;34.35;24.67;;;;;;;;;;4753927;30;20044;-57
2022/07/12 00:41:48;;;;;;;20.05;17.95;;;;;;;;;;4737773;30;20098;-50
2022/07/12 00:44:16;;;;;;;20.55;18.50;;;;;;;;;;4753149;30;20198;-53
2022/07/12 00:46:43;;;;;;;28.55;24.58;;;;;;;;;;4753147;30;20133;-60
2022/07/12 00:49:15;;;;;;;21.33;19.17;;;;;;;;;;4753024;30;20079;-49
2022/07/12 00:51:43;;;;;;;29.13;22.40;;;;;;;;;;4753078;30;20044;-52
2022/07/12 00:54:10;;;;;;;19.38;16.45;;;;;;;;;;4753205;30;20076;-51
2022/07/12 00:56:39;;;;;;;26.88;21.60;;;;;;;;;;4752813;30;20076;-49
2022/07/12 00:59:06;;;;;;;28.02;19.40;;;;;;;;;;4753036;30;20068;-55
2022/07/12 01:01:34;;;;;;;19.80;17.75;;;;;;;;;;4737115;30;20103;-52
2022/07/12 01:04:02;;;;;;;14.75;12.63;;;;;;;;;;4753000;30;20083;-49
2022/07/12 01:06:30;;;;;;;12.30;11.05;;;;;;;;;;4752945;30;20566;-50
2022/07/12 01:09:01;;;;;;;11.85;10.57;;;;;;;;;;4737183;30;20053;-50
2022/07/12 01:11:28;;;;;;;11.57;10.38;;;;;;;;;;4753112;30;20104;-51
2022/07/12 01:13:57;;;;;;;11.73;9.75;;;;;;;;;;4747472;30;20058;-58
2022/07/12 01:16:25;;;;;;;11.60;8.45;;;;;;;;;;4745757;30;20052;-58
2022/07/12 01:18:53;;;;;;;10.88;7.80;;;;;;;;;;4752789;30;20505;-59
2022/07/12 01:21:22;;;;;;;10.68;8.68;;;;;;;;;;4752201;30;20124;-49
2022/07/12 01:23:50;;;;;;;35.25;21.45;;;;;;;;;;4752551;30;20131;-48
2022/07/12 01:26:17;;;;;;;19.63;15.18;;;;;;;;;;4752599;30;20060;-52
2022/07/12 01:28:45;;;;;;;17.88;11.20;;;;;;;;;;4752604;30;20105;-52
2022/07/12 01:31:13;;;;;;;14.93;10.70;;;;;;;;;;4752460;30;20063;-50
2022/07/12 01:33:40;;;;;;;11.70;9.32;;;;;;;;;;4736333;30;20560;-49
2022/07/12 01:36:08;;;;;;;10.32;9.23;;;;;;;;;;4752336;30;20044;-48
2022/07/12 01:38:35;;;;;;;15.40;12.85;;;;;;;;;;4752172;30;20059;-50
2022/07/12 01:41:02;;;;;;;10.68;9.57;;;;;;;;;;4752446;30;20044;-49
2022/07/12 01:43:30;;;;;;;11.25;8.50;;;;;;;;;;4752173;30;20048;-49
2022/07/12 01:45:57;;;;;;;11.15;9.73;;;;;;;;;;4751505;30;20076;-52
2022/07/12 01:48:24;;;;;;;9.30;8.18;;;;;;;;;;4752670;30;20120;-60
2022/07/12 01:50:55;;;;;;;9.18;8.18;;;;;;;;;;4749158;30;20055;-53
2022/07/12 01:53:23;;;;;;;8.60;7.32;;;;;;;;;;4752002;30;20048;-60
2022/07/12 01:55:50;;;;;;;11.77;8.52;;;;;;;;;;4736353;30;20056;-53
2022/07/12 01:58:17;;;;;;;8.40;7.22;;;;;;;;;;4751768;30;20056;-53
2022/07/12 02:00:50;;;;;;;10.18;9.02;;;;;;;;;;4752080;30;20055;-55
2022/07/12 02:03:18;;;;;;;;;;;;;;;;;;4743164;30;20064;-50
2022/07/12 02:05:46;;;;;;;11.20;8.88;;;;;;;;;;4734121;30;20373;-54
2022/07/12 02:08:13;;;;;;;60.63;40.35;;;;;;;;;;4733789;30;20048;-53
2022/07/12 02:10:41;;;;;;;9.93;7.78;;;;;;;;;;4718757;30;20052;-51
2022/07/12 02:13:10;;;;;;;8.13;6.20;;;;;;;;;;4734497;30;20049;-61
2022/07/12 02:15:37;;;;;;;6.72;6.03;;;;;;;;;;4733563;30;20516;-61
2022/07/12 02:18:04;;;;;;;5.70;5.05;;;;;;;;;;4734009;30;20513;-60
2022/07/12 02:20:32;;;;;;;5.97;5.28;;;;;;;;;;4734149;30;20049;-60
2022/07/12 02:22:59;;;;;;;7.88;6.78;;;;;;;;;;4734225;30;20090;-57
2022/07/12 02:25:26;;;;;;;6.95;5.70;;;;;;;;;;4734314;30;20067;-59
2022/07/12 02:27:53;;;;;;;18.17;14.00;;;;;;;;;;4733878;30;20505;-61
2022/07/12 02:30:21;;;;;;;8.95;6.88;;;;;;;;;;4733343;30;20048;-59
2022/07/12 02:32:48;;;;;;;6.53;5.63;;;;;;;;;;4734051;30;20107;-60
2022/07/12 02:35:15;;;;;;;7.00;6.15;;;;;;;;;;4734049;30;20045;-61
2022/07/12 02:37:43;;;;;;;15.77;11.40;;;;;;;;;;4733661;30;20071;-61
2022/07/12 02:42:56;;;;;;;8.38;6.43;;;;;;;;;;4733938;30;20171;-62
2022/07/12 02:45:23;;;;;;;5.82;4.90;;;;;;;;;;4733506;30;20111;-61
2022/07/12 02:47:50;;;;;;;6.70;5.97;;;;;;;;;;4733882;30;20080;-60
2022/07/12 02:50:17;;;;;;;7.55;6.75;;;;;;;;;;4739191;30;20040;-58
2022/07/12 02:52:45;;;;;;;6.70;5.05;;;;;;;;;;4750973;30;20114;-61
2022/07/12 02:55:12;;;;;;;6.22;5.55;;;;;;;;;;4751350;30;20069;-61
2022/07/12 02:57:39;;;;;;;12.15;7.82;;;;;;;;;;4750679;30;20524;-61
2022/07/12 03:00:07;;;;;;;16.35;12.77;;;;;;;;;;4751163;30;20040;-61
2022/07/12 03:02:34;;;;;;;16.88;10.82;;;;;;;;;;4751175;30;20135;-60
2022/07/12 03:05:03;;;;;;;7.32;6.40;;;;;;;;;;4751016;30;20459;-60
2022/07/12 03:07:30;;;;;;;16.67;13.02;;;;;;;;;;4751039;30;20048;-57
2022/07/12 03:09:57;;;;;;;10.15;8.40;;;;;;;;;;4750745;30;20456;-61
2022/07/12 03:12:25;;;;;;;19.02;12.65;;;;;;;;;;4751291;30;20101;-60
2022/07/12 03:14:54;;;;;;;7.88;6.82;;;;;;;;;;4751124;30;20410;-59
2022/07/12 03:17:21;;;;;;;12.23;9.00;;;;;;;;;;4750999;30;20044;-59
2022/07/12 03:19:49;;;;;;;19.45;12.20;;;;;;;;;;4751128;30;20417;-60
2022/07/12 03:22:16;;;;;;;7.95;5.70;;;;;;;;;;4750691;30;20518;-60
2022/07/12 03:24:43;;;;;;;18.50;12.45;;;;;;;;;;4751053;30;20379;-61
2022/07/12 03:27:10;;;;;;;7.75;5.97;;;;;;;;;;4720063;30;20044;-60
2022/07/12 03:29:39;;;;;;;11.77;10.57;;;;;;;;;;4716041;30;20041;-61
2022/07/12 03:32:07;;;;;;;8.10;7.30;;;;;;;;;;4715960;30;20049;-60
2022/07/12 03:34:34;;;;;;;10.70;9.05;;;;;;;;;;4715927;30;20049;-60
2022/07/12 03:37:02;;;;;;;8.73;7.82;;;;;;;;;;4715928;30;20399;-60
2022/07/12 03:39:30;;;;;;;12.05;9.95;;;;;;;;;;4715604;30;20402;-54
2022/07/12 03:42:01;;;;;;;8.20;7.40;;;;;;;;;;4716109;30;20057;-57
2022/07/12 03:44:30;;;;;;;7.70;6.90;;;;;;;;;;4716004;30;20060;-60
2022/07/12 03:46:58;;;;;;;8.30;7.47;;;;;;;;;;4715846;30;20473;-57
2022/07/12 03:49:25;;;;;;;11.75;10.55;;;;;;;;;;4716155;30;20084;-60
2022/07/12 03:51:53;;;;;;;9.93;8.18;;;;;;;;;;4737946;30;20052;-59
2022/07/12 03:54:20;;;;;;;6.50;5.18;;;;;;;;;;4717330;30;20120;-59
2022/07/12 03:59:34;;;;;;;9.68;8.57;;;;;;;;;;4732976;30;20057;-60
2022/07/12 04:02:07;;;;;;;13.43;8.07;;;;;;;;;;4733106;30;20107;-61
2022/07/12 04:04:34;;;;;;;8.40;7.60;;;;;;;;;;4733117;30;20055;-60
2022/07/12 04:07:02;;;;;;;10.18;8.93;;;;;;;;;;4733105;30;20118;-60
2022/07/12 04:09:30;;;;;;;8.23;7.07;;;;;;;;;;4734175;30;20048;-60
2022/07/12 04:11:57;;;;;;;29.02;18.02;;;;;;;;;;4736034;30;20049;-61
2022/07/12 04:14:24;;;;;;;10.43;7.78;;;;;;;;;;4736258;30;20080;-58
2022/07/12 04:16:53;;;;;;;7.28;5.25;;;;;;;;;;4735952;30;20466;-60
2022/07/12 04:19:31;;;;;;;6.35;5.07;;;;;;;;;;4736222;30;20048;-61
2022/07/12 04:21:59;;;;;;;4.97;4.47;;;;;;;;;;4720516;30;20053;-60
2022/07/12 04:24:27;;;;;;;5.50;4.30;;;;;;;;;;4735619;30;20048;-60
2022/07/12 04:26:57;;;;;;;10.73;4.65;;;;;;;;;;4735381;30;20581;-60
2022/07/12 04:29:28;;;;;;;5.78;4.35;;;;;;;;;;4735663;30;20052;-60
2022/07/12 04:31:55;;;;;;;6.35;5.75;;;;;;;;;;4735693;30;20052;-61
2022/07/12 04:34:22;;;;;;;6.18;5.57;;;;;;;;;;4728222;30;20052;-59
2022/07/12 04:36:50;;;;;;;5.53;4.50;;;;;;;;;;4735613;30;20045;-60
2022/07/12 04:39:17;;;;;;;4.75;4.03;;;;;;;;;;4735437;30;20044;-61
2022/07/12 04:41:44;;;;;;;4.63;4.20;;;;;;;;;;4735407;30;20501;-60
2022/07/12 04:44:12;;;;;;;9.50;7.22;;;;;;;;;;4735601;30;20453;-61
2022/07/12 04:46:39;;;;;;;7.20;5.60;;;;;;;;;;4735773;30;20087;-59
2022/07/12 04:49:07;;;;;;;6.78;5.72;;;;;;;;;;4735302;30;20041;-60
2022/07/12 04:51:34;;;;;;;6.82;5.40;;;;;;;;;;4734782;30;20049;-61
2022/07/12 04:54:02;;;;;;;6.43;5.05;;;;;;;;;;4735631;30;20051;-52
2022/07/12 04:56:33;;;;;;;7.40;5.00;;;;;;;;;;4735225;30;20044;-61
2022/07/12 04:59:00;;;;;;;10.85;5.28;;;;;;;;;;4735279;30;20088;-50
2022/07/12 05:01:29;;;;;;;6.22;5.22;;;;;;;;;;4735453;30;20120;-60
2022/07/12 05:03:56;;;;;;;6.72;5.80;;;;;;;;;;4735292;30;20060;-50
2022/07/12 05:06:24;;;;;;;23.40;15.13;;;;;;;;;;4735367;30;20055;-57
2022/07/12 05:08:53;;;;;;;26.70;16.08;;;;;;;;;;4735070;30;20055;-51
2022/07/12 05:11:20;;;;;;;9.20;5.57;;;;;;;;;;4735006;30;20126;-59
2022/07/12 05:13:48;;;;;;;5.93;5.32;;;;;;;;;;4734945;30;20083;-61
2022/07/12 05:16:16;;;;;;;6.45;4.82;;;;;;;;;;4734669;30;20060;-60
2022/07/12 05:18:45;;;;;;;6.90;4.65;;;;;;;;;;4734080;30;20048;-60
2022/07/12 05:21:13;;;;;;;5.32;4.32;;;;;;;;;;4733474;30;20048;-51
2022/07/12 05:23:40;;;;;;;8.00;4.78;;;;;;;;;;4733552;30;20044;-52
2022/07/12 05:26:07;;;;;;;7.28;5.25;;;;;;;;;;4733455;30;20048;-50
2022/07/12 05:28:42;;;;;;;5.97;4.82;;;;;;;;;;4733834;30;20142;-50
2022/07/12 05:31:10;;;;;;;6.38;4.57;;;;;;;;;;4742304;30;20052;-52
2022/07/12 05:33:37;;;;;;;5.68;4.78;;;;;;;;;;4751267;30;20053;-49
2022/07/12 05:36:05;;;;;;;5.78;5.07;;;;;;;;;;4751010;30;20465;-53
2022/07/12 05:38:32;;;;;;;6.20;5.57;;;;;;;;;;4751002;30;20068;-50
2022/07/12 05:40:59;;;;;;;46.70;30.52;;;;;;;;;;4752463;30;20052;-52
2022/07/12 05:43:26;;;;;;;17.20;11.40;;;;;;;;;;4752191;30;20059;-52
2022/07/12 05:45:55;;;;;;;6.95;5.35;;;;;;;;;;4752327;30;20110;-61
2022/07/12 05:48:22;;;;;;;5.50;4.88;;;;;;;;;;4752094;30;20051;-52
2022/07/12 05:50:50;;;;;;;6.15;5.25;;;;;;;;;;4742914;30;20383;-51
2022/07/12 05:53:23;;;;;;;6.28;4.97;;;;;;;;;;4734648;30;20546;-51
2022/07/12 05:55:51;;;;;;;5.28;4.78;;;;;;;;;;4734292;30;20632;-58
2022/07/12 05:58:20;;;;;;;8.07;5.45;;;;;;;;;;4734121;30;20056;-51
2022/07/12 06:00:47;;;;;;;29.08;19.33;;;;;;;;;;4734149;30;20045;-59
2022/07/12 06:03:16;;;;;;;11.38;7.40;;;;;;;;;;4733865;30;20056;-52
2022/07/12 06:05:43;;;;;;;6.55;4.70;;;;;;;;;;4734440;30;20442;-52
2022/07/12 06:08:11;;;;;;;5.15;4.50;;;;;;;;;;4733911;30;20450;-53
2022/07/12 06:10:38;;;;;;;5.93;5.05;;;;;;;;;;4733724;30;20059;-60
2022/07/12 06:13:07;;;;;;;5.82;5.22;;;;;;;;;;4734178;30;20049;-51
2022/07/12 06:15:34;;;;;;;6.57;5.97;;;;;;;;;;4733802;30;20053;-51
2022/07/12 06:18:02;;;;;;;6.25;4.93;;;;;;;;;;4734041;30;20048;-51
2022/07/12 06:20:29;;;;;;;6.00;5.40;;;;;;;;;;4733782;30;20060;-53
2022/07/12 06:22:57;;;;;;;11.00;8.68;;;;;;;;;;4733907;30;20383;-50
2022/07/12 06:25:25;;;;;;;6.82;6.13;;;;;;;;;;4733598;30;20041;-52
2022/07/12 06:28:09;;;;;;;6.38;5.78;;;;;;;;;;4733819;30;20049;-51
2022/07/12 06:30:37;;;;;;;5.97;5.38;;;;;;;;;;4733196;30;20091;-56
2022/07/12 06:33:05;;;;;;;5.80;5.00;;;;;;;;;;4733267;30;20045;-51
2022/07/12 06:35:33;;;;;;;6.05;5.45;;;;;;;;;;4733361;30;20053;-51
2022/07/12 06:38:02;;;;;;;6.43;5.43;;;;;;;;;;4733560;30;20043;-57
2022/07/12 06:40:29;;;;;;;7.45;5.28;;;;;;;;;;4734041;30;20069;-52
2022/07/12 06:42:57;;;;;;;18.70;12.75;;;;;;;;;;4733696;30;20088;-59
2022/07/12 06:45:24;;;;;;;13.45;9.63;;;;;;;;;;4733548;30;20044;-50
2022/07/12 06:47:52;;;;;;;6.35;5.38;;;;;;;;;;4733845;30;20111;-60
2022/07/12 06:50:20;;;;;;;5.70;5.13;;;;;;;;;;4733430;30;20080;-51
2022/07/12 06:52:47;;;;;;;5.22;4.72;;;;;;;;;;4733356;30;20041;-60
2022/07/12 06:55:16;;;;;;;6.78;5.00;;;;;;;;;;4733077;30;20486;-49
2022/07/12 06:57:43;;;;;;;5.65;4.82;;;;;;;;;;4733271;30;20079;-52
2022/07/12 07:00:10;;;;;;;6.82;4.60;;;;;;;;;;4717190;30;20439;-60
2022/07/12 07:02:41;;;;;;;27.38;22.25;;;;;;;;;;4733448;30;20084;-52
2022/07/12 07:05:10;;;;;;;5.57;4.90;;;;;;;;;;4733019;30;20471;-55
2022/07/12 07:07:38;;;;;;;4.47;4.07;;;;;;;;;;4732893;30;20119;-53
2022/07/12 07:10:05;;;;;;;5.88;3.90;;;;;;;;;;4732591;30;20060;-56
2022/07/12 07:12:32;;;;;;;5.35;4.05;;;;;;;;;;4733208;30;20087;-52
2022/07/12 07:15:00;;;;;;;6.53;4.57;;;;;;;;;;4733711;30;20053;-59
2022/07/12 07:17:27;;;;;;;6.22;4.05;;;;;;;;;;4733479;30;20045;-51
2022/07/12 07:19:54;;;;;;;4.93;4.43;;;;;;;;;;4733132;30;20114;-52
2022/07/12 07:22:21;;;;;;;5.57;4.40;;;;;;;;;;4732441;30;20048;-55
2022/07/12 07:24:52;;;;;;;6.68;4.07;;;;;;;;;;4731351;30;20610;-52
2022/07/12 07:27:19;;;;;;;5.40;4.10;;;;;;;;;;4732327;30;20057;-51
2022/07/12 07:32:32;;;;;;;6.45;4.20;;;;;;;;;;4732900;30;20053;-53
2022/07/12 07:34:59;;;;;;;3.95;3.55;;;;;;;;;;4733441;30;20053;-51
2022/07/12 07:37:27;;;;;;;4.70;3.42;;;;;;;;;;4733182;30;20045;-52
2022/07/12 07:39:54;;;;;;;3.63;3.28;;;;;;;;;;4732583;30;20045;-52
2022/07/12 07:42:21;;;;;;;4.55;3.53;;;;;;;;;;4733250;30;20084;-60
2022/07/12 07:44:48;;;;;;;3.35;3.05;;;;;;;;;;4735075;30;20509;-47
2022/07/12 07:47:49;;;;;;;4.40;3.58;;;;;;;;;;4730723;30;20052;-49
2022/07/12 07:50:37;;;;;;;3.78;3.35;;;;;;;;;;4736397;30;20072;-50
2022/07/12 07:53:04;;;;;;;4.85;3.70;;;;;;;;;;4736330;30;20045;-60
2022/07/12 07:55:32;;;;;;;3.95;3.50;;;;;;;;;;4736454;30;20055;-49
2022/07/12 07:58:00;;;;;;;5.25;3.60;;;;;;;;;;4736148;30;20091;-60
2022/07/12 08:00:28;;;;;;;4.82;3.78;;;;;;;;;;4736417;30;20040;-60
2022/07/12 08:02:55;;;;;;;5.90;3.85;;;;;;;;;;4736501;30;20037;-51
2022/07/12 08:05:23;;;;;;;4.68;4.03;;;;;;;;;;4728908;30;20048;-59
2022/07/12 08:07:56;;;;;;;5.25;4.03;;;;;;;;;;4735070;30;20149;-48
2022/07/12 08:10:25;;;;;;;5.97;4.05;;;;;;;;;;4735397;30;20053;-50
2022/07/12 08:12:53;;;;;;;4.55;3.70;;;;;;;;;;4720587;30;20057;-51
2022/07/12 08:15:20;;;;;;;7.93;4.25;;;;;;;;;;4735733;30;20056;-50
2022/07/12 08:17:47;;;;;;;4.15;3.75;;;;;;;;;;4735666;30;20414;-59
2022/07/12 08:20:21;;;;;;;5.50;3.78;;;;;;;;;;4735873;30;20102;-53
2022/07/12 08:23:10;;;;;;;7.78;3.78;;;;;;;;;;4735801;30;20045;-51
2022/07/12 08:25:39;;;;;;;5.28;3.90;;;;;;;;;;4734637;30;20049;-54
2022/07/12 08:28:07;;;;;;;5.00;4.50;;;;;;;;;;4735209;30;20502;-51
2022/07/12 08:30:35;;;;;;;4.88;3.63;;;;;;;;;;4735995;30;20047;-60
2022/07/12 08:33:10;;;;;;;4.43;3.78;;;;;;;;;;4735490;30;20069;-50
2022/07/12 08:35:38;;;;;;;3.83;3.42;;;;;;;;;;4735643;30;20056;-50
2022/07/12 08:38:05;;;;;;;5.40;3.60;;;;;;;;;;4735449;30;20044;-52
2022/07/12 08:40:32;;;;;;;4.40;4.00;;;;;;;;;;4735939;30;20045;-47
2022/07/12 08:43:02;;;;;;;4.15;3.75;;;;;;;;;;4735414;30;20048;-51
2022/07/12 08:45:30;;;;;;;4.82;3.55;;;;;;;;;;4735017;30;20056;-57
2022/07/12 08:47:57;;;;;;;4.03;3.50;;;;;;;;;;4735379;30;20049;-59
2022/07/12 08:50:26;;;;;;;5.03;3.30;;;;;;;;;;4720032;30;20514;-52
2022/07/12 08:52:55;;;;;;;4.72;3.83;;;;;;;;;;4735470;30;20079;-51
2022/07/12 08:55:31;;;;;;;4.65;3.80;;;;;;;;;;4727365;30;20056;-60
2022/07/12 08:58:03;;;;;;;6.40;4.18;;;;;;;;;;4735308;30;20110;-59
2022/07/12 09:00:33;;;;;;;4.43;3.88;;;;;;;;;;4735722;30;20053;-59
2022/07/12 09:03:03;;;;;;;11.52;8.80;;;;;;;;;;4735472;30;20041;-57
2022/07/12 09:05:33;;;;;;;7.70;5.82;;;;;;;;;;4734277;30;20425;-50
2022/07/12 09:08:07;;;;;;;4.28;3.88;;;;;;;;;;4735273;30;20054;-55
2022/07/12 09:10:49;;;;;;;5.07;4.57;;;;;;;;;;4735005;30;20465;-51
2022/07/12 09:13:20;;;;;;;5.72;4.40;;;;;;;;;;4734931;30;20048;-49
2022/07/12 09:15:47;;;;;;;5.70;4.75;;;;;;;;;;4734819;30;20525;-51
2022/07/12 09:18:22;;;;;;;5.50;4.35;;;;;;;;;;4735225;30;20067;-52
2022/07/12 09:20:51;;;;;;;4.57;3.97;;;;;;;;;;4734740;30;20144;-54
2022/07/12 09:23:18;;;;;;;6.53;4.28;;;;;;;;;;4734776;30;20476;-54
2022/07/12 09:25:47;;;;;;;4.85;4.35;;;;;;;;;;4734960;30;20056;-52
2022/07/12 09:28:14;;;;;;;7.13;4.43;;;;;;;;;;4734474;30;20053;-52
2022/07/12 09:30:53;;;;;;;4.88;4.38;;;;;;;;;;4735103;30;20045;-52
2022/07/12 09:36:07;;;;;;;18.15;12.60;;;;;;;;;;4734325;30;20048;-53
2022/07/12 09:38:37;;;;;;;6.18;5.50;;;;;;;;;;4734606;30;20048;-57
2022/07/12 09:41:08;;;;;;;5.10;4.60;;;;;;;;;;4734821;30;20177;-51
2022/07/12 09:43:35;;;;;;;5.07;4.57;;;;;;;;;;4734565;30;20528;-51
2022/07/12 09:46:02;;;;;;;5.07;4.57;;;;;;;;;;4734314;30;20052;-53
2022/07/12 09:48:30;;;;;;;6.35;4.82;;;;;;;;;;4733847;30;20059;-59
2022/07/12 09:50:58;;;;;;;5.40;4.10;;;;;;;;;;4734786;30;20053;-50
2022/07/12 09:53:35;;;;;;;5.20;4.00;;;;;;;;;;4734347;30;20052;-50
2022/07/12 09:56:07;;;;;;;5.03;4.53;;;;;;;;;;4734267;30;20399;-50
2022/07/12 09:58:40;;;;;;;4.88;4.32;;;;;;;;;;4733587;30;20060;-61
2022/07/12 10:01:08;;;;;;;6.45;4.70;;;;;;;;;;4734097;30;20045;-51
2022/07/12 10:03:43;;;;;;;6.35;4.32;;;;;;;;;;4734104;30;20442;-59
2022/07/12 10:06:21;;;;;;;5.07;4.43;;;;;;;;;;4734195;30;20044;-52
2022/07/12 10:08:51;;;;;;;5.25;4.57;;;;;;;;;;4733312;30;20406;-53
2022/07/12 10:11:22;;;;;;;5.18;4.55;;;;;;;;;;4734005;30;20057;-53
2022/07/12 10:14:12;;;;;;;4.82;4.13;;;;;;;;;;4733998;30;20131;-59
2022/07/12 10:16:46;;;;;;;6.78;4.32;;;;;;;;;;4733985;30;20059;-52
2022/07/12 10:19:31;;;;;;;5.10;4.28;;;;;;;;;;4733710;30;20049;-52
2022/07/12 10:22:01;;;;;;;4.85;4.35;;;;;;;;;;4733970;30;20048;-51
2022/07/12 10:24:33;;;;;;;4.82;4.30;;;;;;;;;;4733852;30;20044;-60
2022/07/12 10:27:20;;;;;;;4.85;4.35;;;;;;;;;;4734083;30;20063;-52
2022/07/12 10:29:54;;;;;;;4.90;4.40;;;;;;;;;;4733390;30;20044;-55
2022/07/12 10:32:35;;;;;;;8.40;6.97;;;;;;;;;;4718096;30;20395;-51
2022/07/12 10:35:11;;;;;;;6.22;4.32;;;;;;;;;;4733841;30;20049;-57
2022/07/12 10:37:38;;;;;;;4.70;4.18;;;;;;;;;;4733736;30;20593;-50
2022/07/12 10:40:20;;;;;;;6.10;4.00;;;;;;;;;;4733642;30;20045;-58
2022/07/12 10:43:05;;;;;;;6.07;3.97;;;;;;;;;;4734053;30;20461;-59
2022/07/12 10:45:43;;;;;;;5.28;4.47;;;;;;;;;;4733837;30;20057;-52
2022/07/12 10:48:23;;;;;;;4.78;4.28;;;;;;;;;;4733586;30;20053;-52
2022/07/12 10:50:57;;;;;;;6.40;4.45;;;;;;;;;;4733512;30;20053;-52
2022/07/12 10:53:45;;;;;;;4.95;3.80;;;;;;;;;;4733718;30;20124;-53
2022/07/12 10:56:25;;;;;;;4.93;4.25;;;;;;;;;;4733696;30;20048;-51
2022/07/12 10:59:00;;;;;;;6.03;4.82;;;;;;;;;;4733296;30;20136;-59
2022/07/12 11:01:29;;;;;;;7.28;4.88;;;;;;;;;;4733847;30;20041;-52
2022/07/12 11:04:10;;;;;;;5.75;4.65;;;;;;;;;;4733925;30;20045;-59
2022/07/12 11:06:40;;;;;;;5.97;4.50;;;;;;;;;;4717994;30;20388;-53
2022/07/12 11:09:09;;;;;;;6.57;4.25;;;;;;;;;;4733560;30;20049;-58
2022/07/12 11:11:48;;;;;;;4.95;4.45;;;;;;;;;;4717619;30;20048;-52
2022/07/12 11:14:23;;;;;;;7.82;4.22;;;;;;;;;;4733394;30;20103;-51
2022/07/12 11:16:52;;;;;;;6.25;4.38;;;;;;;;;;4733388;30;20131;-55
2022/07/12 11:19:26;;;;;;;7.10;4.35;;;;;;;;;;4735548;30;20040;-54
2022/07/12 11:21:55;;;;;;;5.90;3.83;;;;;;;;;;4736632;30;20060;-59
2022/07/12 11:24:28;;;;;;;4.22;3.83;;;;;;;;;;4729653;30;20052;-58
2022/07/12 11:26:56;;;;;;;5.10;4.60;;;;;;;;;;4736962;30;20237;-51
2022/07/12 11:29:25;;;;;;;4.63;4.13;;;;;;;;;;4737007;30;20123;-56
2022/07/12 11:32:05;;;;;;;6.97;4.85;;;;;;;;;;4736885;30;20056;-52
2022/07/12 11:34:38;;;;;;;4.88;4.38;;;;;;;;;;4736810;30;20524;-59
2022/07/12 11:37:05;;;;;;;6.05;4.47;;;;;;;;;;4720957;30;20387;-53
2022/07/12 11:39:38;;;;;;;5.38;4.63;;;;;;;;;;4736583;30;20055;-54
2022/07/12 11:42:05;;;;;;;;;;;;;;;;;;4737329;30;20083;-53
2022/07/12 11:44:52;;;;;;;5.13;4.43;;;;;;;;;;4736757;30;19933;-54
2022/07/12 11:47:22;;;;;;;5.68;4.60;;;;;;;;;;4736548;30;20057;-59
2022/07/12 11:49:52;;;;;;;9.07;4.68;;;;;;;;;;4734615;30;20439;-59
2022/07/12 11:52:21;;;;;;;5.65;4.70;;;;;;;;;;4718958;30;20049;-59
2022/07/12 11:54:50;;;;;;;6.38;5.40;;;;;;;;;;4718842;30;20057;-52
2022/07/12 11:57:23;;;;;;;5.22;4.72;;;;;;;;;;4718698;30;20049;-59
2022/07/12 11:59:50;;;;;;;4.80;4.30;;;;;;;;;;4718916;30;20057;-53
2022/07/12 12:02:18;;;;;;;6.47;4.57;;;;;;;;;;4718943;30;20075;-60
2022/07/12 12:04:50;;;;;;;34.72;26.67;;;;;;;;;;4718209;30;20133;-54
2022/07/12 12:07:19;;;;;;;6.10;4.95;;;;;;;;;;4718044;30;20061;-59
2022/07/12 12:10:04;;;;;;;5.10;4.22;;;;;;;;;;4717712;30;20041;-52
2022/07/12 12:12:52;;;;;;;5.15;3.58;;;;;;;;;;4717955;30;20045;-51
2022/07/12 12:15:33;;;;;;;7.47;5.80;;;;;;;;;;4717869;30;20053;-53
2022/07/12 12:18:05;;;;;;;5.57;4.25;;;;;;;;;;4718193;30;20090;-52
2022/07/12 12:20:34;;;;;;;5.05;4.55;;;;;;;;;;4718725;30;20076;-53
2022/07/12 12:23:05;;;;;;;5.82;4.50;;;;;;;;;;4718635;30;20522;-51
2022/07/12 12:25:34;;;;;;;6.05;4.57;;;;;;;;;;4718681;30;20053;-53
2022/07/12 12:28:04;;;;;;;5.43;4.57;;;;;;;;;;4717684;30;20076;-53
2022/07/12 12:30:51;;;;;;;14.32;10.20;;;;;;;;;;4717549;30;20045;-53
2022/07/12 12:33:39;;;;;;;20.38;16.40;;;;;;;;;;4718460;30;20056;-49
2022/07/12 12:36:29;;;;;;;7.00;5.45;;;;;;;;;;4718371;30;20128;-56
2022/07/12 12:39:00;;;;;;;4.95;4.45;;;;;;;;;;4718754;30;20041;-53
2022/07/12 12:41:37;;;;;;;5.88;4.50;;;;;;;;;;4718565;30;20053;-59
2022/07/12 12:44:09;;;;;;;6.28;4.30;;;;;;;;;;4717545;30;20132;-52
2022/07/12 12:46:46;;;;;;;5.57;4.10;;;;;;;;;;4717058;30;20572;-50
2022/07/12 12:49:14;;;;;;;6.00;4.03;;;;;;;;;;4716827;30;20041;-53
2022/07/12 12:51:55;;;;;;;7.10;4.30;;;;;;;;;;4732068;30;20048;-52
2022/07/12 12:54:33;;;;;;;6.57;4.57;;;;;;;;;;4734469;30;20136;-53
2022/07/12 12:57:00;;;;;;;6.53;4.32;;;;;;;;;;4734714;30;20572;-51
2022/07/12 12:59:27;;;;;;;5.95;4.50;;;;;;;;;;4735265;30;20052;-59
2022/07/12 13:01:55;;;;;;;5.13;4.10;;;;;;;;;;4734935;30;20391;-51
2022/07/12 13:04:22;;;;;;;6.57;4.05;;;;;;;;;;4733999;30;20921;-57
2022/07/12 13:06:50;;;;;;;5.65;4.53;;;;;;;;;;4733364;30;20090;-52
2022/07/12 13:09:19;;;;;;;7.15;4.40;;;;;;;;;;4737449;30;20036;-52
2022/07/12 13:11:47;;;;;;;5.65;4.13;;;;;;;;;;4751421;30;20048;-51
2022/07/12 13:14:14;;;;;;;7.30;4.25;;;;;;;;;;4751012;30;20048;-51
2022/07/12 13:16:42;;;;;;;6.28;4.32;;;;;;;;;;4751239;30;20067;-56
2022/07/12 13:19:09;;;;;;;6.10;4.32;;;;;;;;;;4751157;30;20147;-51
2022/07/12 13:21:37;;;;;;;5.25;4.43;;;;;;;;;;4751142;30;20543;-55
2022/07/12 13:24:05;;;;;;;5.10;4.43;;;;;;;;;;4751123;30;20135;-53
2022/07/12 13:26:32;;;;;;;6.22;4.30;;;;;;;;;;4751246;30;20097;-55
2022/07/12 13:28:59;;;;;;;5.60;4.00;;;;;;;;;;4751271;30;20044;-59
2022/07/12 13:31:27;;;;;;;5.68;4.45;;;;;;;;;;4750873;30;20052;-48
2022/07/12 13:33:56;;;;;;;35.88;24.35;;;;;;;;;;4750895;30;20058;-56
2022/07/12 13:36:23;;;;;;;8.55;5.20;;;;;;;;;;4743440;30;20052;-58
2022/07/12 13:38:51;;;;;;;5.00;4.50;;;;;;;;;;4750772;30;20052;-58
2022/07/12 13:41:18;;;;;;;4.47;4.07;;;;;;;;;;4750736;30;20398;-55
2022/07/12 13:43:45;;;;;;;4.90;4.00;;;;;;;;;;4750663;30;20048;-52
2022/07/12 13:46:12;;;;;;;5.30;3.85;;;;;;;;;;4750730;30;20056;-59
2022/07/12 13:48:40;;;;;;;5.50;4.30;;;;;;;;;;4734686;30;20040;-53
2022/07/12 13:51:08;;;;;;;4.85;4.00;;;;;;;;;;4739045;30;20083;-58
2022/07/12 13:53:55;;;;;;;16.60;11.85;;;;;;;;;;4732693;30;20561;-50
2022/07/12 13:56:22;;;;;;;6.30;4.30;;;;;;;;;;4717125;30;20119;-54
2022/07/12 13:58:50;;;;;;;5.07;4.32;;;;;;;;;;4732606;30;20718;-55
2022/07/12 14:01:17;;;;;;;4.43;3.97;;;;;;;;;;4732670;30;20452;-53
2022/07/12 14:03:44;;;;;;;4.22;3.72;;;;;;;;;;4732713;30;20201;-53
2022/07/12 14:06:11;;;;;;;5.53;4.13;;;;;;;;;;4732529;30;20064;-55
2022/07/12 14:08:39;;;;;;;5.07;4.15;;;;;;;;;;4732706;30;20418;-50
2022/07/12 14:11:06;;;;;;;4.40;3.90;;;;;;;;;;4732830;30;20044;-54
2022/07/12 14:13:33;;;;;;;5.18;4.05;;;;;;;;;;4732857;30;20044;-51
2022/07/12 14:16:00;;;;;;;16.13;12.07;;;;;;;;;;4732936;30;20063;-51
2022/07/12 14:18:28;;;;;;;6.85;6.15;;;;;;;;;;4732594;30;20045;-51
2022/07/12 14:20:55;;;;;;;5.95;4.15;;;;;;;;;;4732449;30;20049;-52
2022/07/12 14:23:22;;;;;;;4.95;4.25;;;;;;;;;;4732285;30;20953;-51
2022/07/12 14:25:50;;;;;;;6.88;4.22;;;;;;;;;;4732263;30;20049;-52
2022/07/12 14:28:17;;;;;;;5.75;3.80;;;;;;;;;;4732164;30;20048;-53
2022/07/12 14:30:44;;;;;;;4.95;4.38;;;;;;;;;;4731695;30;20140;-54
2022/07/12 14:33:11;;;;;;;12.77;11.15;;;;;;;;;;4732417;30;20406;-55
2022/07/12 14:35:41;;;;;;;26.35;20.05;;;;;;;;;;4731532;30;20128;-51
2022/07/12 14:38:08;;;;;;;13.32;11.93;;;;;;;;;;4731908;30;20165;-49
2022/07/12 14:40:36;;;;;;;23.50;15.68;;;;;;;;;;4732155;30;20152;-48
2022/07/12 14:43:03;;;;;;;8.63;6.68;;;;;;;;;;4732304;30;20060;-69
2022/07/12 14:45:31;;;;;;;6.35;4.03;;;;;;;;;;4731960;30;20067;-53
2022/07/12 14:47:59;;;;;;;5.30;3.92;;;;;;;;;;4731826;30;20059;-50
2022/07/12 14:50:26;;;;;;;5.15;4.30;;;;;;;;;;4730954;30;20110;-61
2022/07/12 14:52:54;;;;;;;4.78;4.10;;;;;;;;;;4731649;30;20477;-61
2022/07/12 14:55:22;;;;;;;6.13;4.45;;;;;;;;;;4731996;30;20078;-61
2022/07/12 14:57:50;;;;;;;4.93;4.38;;;;;;;;;;4731957;30;20551;-50
2022/07/12 15:00:17;;;;;;;4.68;3.80;;;;;;;;;;4732005;30;20044;-53
2022/07/12 15:02:47;;;;;;;5.32;3.53;;;;;;;;;;4716393;30;20102;-53
2022/07/12 15:05:18;;;;;;;;;;;;;;;;;;4733254;30;20049;-50